createdAt,value
2022-07-26T00:00:48.680Z,10.55
2022-07-26T00:03:54.408Z,9.35
2022-07-26T00:06:59.592Z,10.35
2022-07-26T00:10:04.661Z,10.20
2022-07-26T00:13:12.616Z,9.95
2022-07-26T00:16:17.952Z,10.38
2022-07-26T00:19:23.137Z,10.48
2022-07-26T00:22:41.860Z,10.77
2022-07-26T00:25:47.081Z,11.40
2022-07-26T00:28:54.942Z,10.00
2022-07-26T00:32:00.119Z,11.43
2022-07-26T00:35:05.383Z,9.80
2022-07-26T00:38:10.588Z,10.25
2022-07-26T00:41:15.637Z,9.45
2022-07-26T00:44:23.709Z,9.93
2022-07-26T00:47:28.772Z,9.20
2022-07-26T00:50:33.915Z,10.00
2022-07-26T00:53:39.659Z,10.75
2022-07-26T00:56:45.374Z,10.05
2022-07-26T00:59:53.398Z,9.75
2022-07-26T01:06:06.036Z,10.02
2022-07-26T01:09:11.277Z,10.35
2022-07-26T01:12:16.618Z,10.07
2022-07-26T01:15:24.671Z,10.93
2022-07-26T01:18:29.800Z,10.55
2022-07-26T01:21:37.573Z,9.93
2022-07-26T01:24:42.895Z,10.32
2022-07-26T01:27:48.055Z,11.07
2022-07-26T01:30:53.362Z,10.57
2022-07-26T01:33:58.614Z,10.40
2022-07-26T01:37:06.614Z,11.25
2022-07-26T01:40:12.474Z,10.57
2022-07-26T01:43:17.496Z,11.02
2022-07-26T01:46:23.104Z,11.10
2022-07-26T01:49:28.437Z,10.55
2022-07-26T01:52:36.322Z,10.57
2022-07-26T01:55:41.412Z,11.30
2022-07-26T01:58:46.452Z,11.32
2022-07-26T02:01:52.341Z,10.77
2022-07-26T02:05:03.906Z,10.75
2022-07-26T02:08:11.751Z,10.77
2022-07-26T02:11:17.931Z,11.27
2022-07-26T02:14:25.669Z,12.48
2022-07-26T02:17:33.068Z,10.60
2022-07-26T02:20:38.228Z,10.73
2022-07-26T02:23:46.095Z,11.13
2022-07-26T02:26:51.158Z,12.20
2022-07-26T02:29:56.718Z,11.07
2022-07-26T02:33:01.891Z,12.25
2022-07-26T02:36:07.717Z,12.18
2022-07-26T02:39:15.847Z,10.90
2022-07-26T02:42:21.216Z,11.60
2022-07-26T02:45:26.342Z,10.82
2022-07-26T02:48:31.793Z,11.45
2022-07-26T02:51:37.144Z,11.52
2022-07-26T02:54:45.118Z,12.18
2022-07-26T02:57:50.703Z,12.52
2022-07-26T03:00:56.337Z,12.18
2022-07-26T03:04:01.581Z,12.30
2022-07-26T03:07:06.854Z,12.55
2022-07-26T03:10:14.927Z,12.15
2022-07-26T03:13:19.898Z,13.85
2022-07-26T03:16:29.231Z,12.63
2022-07-26T03:19:34.908Z,12.10
2022-07-26T03:22:40.177Z,12.43
2022-07-26T03:25:48.064Z,12.82
2022-07-26T03:28:53.409Z,12.38
2022-07-26T03:31:58.840Z,12.15
2022-07-26T03:35:04.003Z,12.93
2022-07-26T03:38:09.392Z,11.95
2022-07-26T03:41:17.312Z,12.77
2022-07-26T03:44:22.605Z,13.20
2022-07-26T03:47:27.643Z,12.60
2022-07-26T03:50:33.018Z,12.07
2022-07-26T03:53:38.165Z,11.18
2022-07-26T03:56:43.730Z,12.82
2022-07-26T03:59:48.899Z,12.15
2022-07-26T04:02:53.993Z,12.48
2022-07-26T04:05:59.230Z,12.30
2022-07-26T04:09:06.082Z,11.35
2022-07-26T04:12:13.998Z,12.43
2022-07-26T04:15:19.358Z,12.95
2022-07-26T04:18:24.845Z,13.43
2022-07-26T04:21:30.080Z,12.90
2022-07-26T04:24:35.104Z,12.73
2022-07-26T04:27:42.839Z,13.00
2022-07-26T04:30:48.587Z,13.25
2022-07-26T04:33:53.852Z,13.13
2022-07-26T04:36:59.411Z,12.77
2022-07-26T04:40:04.458Z,12.57
2022-07-26T04:43:15.737Z,12.38
2022-07-26T04:46:21.580Z,11.80
2022-07-26T04:49:26.835Z,14.30
2022-07-26T04:52:32.688Z,13.82
2022-07-26T04:55:39.252Z,12.57
2022-07-26T04:58:46.968Z,12.80
2022-07-26T05:01:52.432Z,13.90
2022-07-26T05:04:57.494Z,12.10
2022-07-26T05:08:03.637Z,13.75
2022-07-26T05:11:09.129Z,13.85
2022-07-26T05:14:17.032Z,13.88
2022-07-26T05:17:22.249Z,14.30
2022-07-26T05:20:31.255Z,13.35
2022-07-26T05:23:36.641Z,13.45
2022-07-26T05:26:42.244Z,13.63
2022-07-26T05:29:49.866Z,14.45
2022-07-26T05:32:55.326Z,14.15
2022-07-26T05:36:00.484Z,13.95
2022-07-26T05:39:05.982Z,14.02
2022-07-26T05:42:11.083Z,12.63
2022-07-26T05:45:19.235Z,13.75
2022-07-26T05:48:24.261Z,13.15
2022-07-26T05:51:30.484Z,12.68
2022-07-26T05:54:35.713Z,13.55
2022-07-26T05:57:41.981Z,13.32
2022-07-26T06:00:49.586Z,12.68
2022-07-26T06:03:54.792Z,14.70
2022-07-26T06:07:00.165Z,14.02
2022-07-26T06:10:05.205Z,13.88
2022-07-26T06:13:10.551Z,12.23
2022-07-26T06:16:18.291Z,13.23
2022-07-26T06:19:23.608Z,13.38
2022-07-26T06:22:28.604Z,13.02
2022-07-26T06:25:34.123Z,11.95
2022-07-26T06:28:39.802Z,13.52
2022-07-26T06:31:47.762Z,13.10
2022-07-26T06:34:52.861Z,14.93
2022-07-26T06:37:58.093Z,13.35
2022-07-26T06:41:03.338Z,12.63
2022-07-26T06:44:09.085Z,12.18
2022-07-26T06:47:17.464Z,13.18
2022-07-26T06:50:25.546Z,12.18
2022-07-26T06:53:31.259Z,12.77
2022-07-26T06:56:36.465Z,11.80
2022-07-26T06:59:41.654Z,11.55
2022-07-26T07:02:49.560Z,10.90
2022-07-26T07:05:54.810Z,10.38
2022-07-26T07:09:00.076Z,10.82
2022-07-26T07:12:10.478Z,10.63
2022-07-26T07:15:16.089Z,10.45
2022-07-26T07:18:23.882Z,10.45
2022-07-26T07:21:29.507Z,10.13
2022-07-26T07:24:34.619Z,10.35
2022-07-26T07:27:39.826Z,10.30
2022-07-26T07:30:45.008Z,9.57
2022-07-26T07:33:53.841Z,9.40
2022-07-26T07:36:58.996Z,9.57
2022-07-26T07:40:08.477Z,9.93
2022-07-26T07:43:13.817Z,10.30
2022-07-26T07:46:19.144Z,10.20
2022-07-26T07:49:26.936Z,9.45
2022-07-26T07:52:32.821Z,10.10
2022-07-26T07:55:41.543Z,9.65
2022-07-26T07:58:52.330Z,10.45
2022-07-26T08:01:57.787Z,9.27
2022-07-26T08:05:14.398Z,8.82
2022-07-26T08:08:22.231Z,8.70
2022-07-26T08:11:29.900Z,9.27
2022-07-26T08:14:35.428Z,8.57
2022-07-26T08:17:41.745Z,8.93
2022-07-26T08:20:49.942Z,8.68
2022-07-26T08:23:55.661Z,9.43
2022-07-26T08:27:00.680Z,8.60
2022-07-26T08:30:06.165Z,8.88
2022-07-26T08:33:11.254Z,9.90
2022-07-26T08:36:19.876Z,9.85
2022-07-26T08:39:25.044Z,9.30
2022-07-26T08:42:30.453Z,9.35
2022-07-26T08:45:35.707Z,10.00
2022-07-26T08:48:40.911Z,9.63
2022-07-26T08:51:48.896Z,9.43
2022-07-26T08:54:54.951Z,9.88
2022-07-26T08:58:00.073Z,9.50
2022-07-26T09:01:09.586Z,9.05
2022-07-26T09:04:31.678Z,8.90
2022-07-26T09:07:40.855Z,9.40
2022-07-26T09:13:53.660Z,9.25
2022-07-26T09:20:09.720Z,9.40
2022-07-26T09:23:17.963Z,8.95
2022-07-26T09:26:23.558Z,9.63
2022-07-26T09:29:28.717Z,10.25
2022-07-26T09:32:34.233Z,9.43
2022-07-26T09:35:50.968Z,9.32
2022-07-26T09:42:28.627Z,9.40
2022-07-26T09:45:35.180Z,10.10
2022-07-26T09:49:08.253Z,8.98
2022-07-26T09:52:08.805Z,9.65
2022-07-26T09:55:16.975Z,9.85
2022-07-26T09:58:25.403Z,9.80
2022-07-26T10:01:30.641Z,10.07
2022-07-26T10:04:35.886Z,10.00
2022-07-26T10:07:41.184Z,9.45
2022-07-26T10:10:48.506Z,9.27
2022-07-26T10:13:57.744Z,10.23
2022-07-26T10:17:02.949Z,10.57
2022-07-26T10:20:16.889Z,9.80
2022-07-26T10:23:40.335Z,10.10
2022-07-26T10:26:46.217Z,12.10
2022-07-26T10:29:53.997Z,10.23
2022-07-26T10:33:03.077Z,9.52
2022-07-26T10:36:24.154Z,9.77
2022-07-26T10:39:31.160Z,9.88
2022-07-26T10:42:46.156Z,10.65
2022-07-26T10:45:56.660Z,10.27
2022-07-26T10:49:04.034Z,10.45
2022-07-26T10:52:17.170Z,9.90
2022-07-26T10:55:22.504Z,10.68
2022-07-26T10:58:28.958Z,10.32
2022-07-26T11:01:40.437Z,11.07
2022-07-26T11:04:45.579Z,10.30
2022-07-26T11:08:01.806Z,11.18
2022-07-26T11:11:07.200Z,11.70
2022-07-26T11:14:13.839Z,11.00
2022-07-26T11:17:28.803Z,11.57
2022-07-26T11:20:34.226Z,11.02
2022-07-26T11:23:39.933Z,10.82
2022-07-26T11:26:45.560Z,11.32
2022-07-26T11:29:50.783Z,11.00
2022-07-26T11:32:59.720Z,11.75
2022-07-26T11:36:04.917Z,11.38
2022-07-26T11:39:13.373Z,11.88
2022-07-26T11:42:20.068Z,11.90
2022-07-26T11:45:25.316Z,10.45
2022-07-26T11:48:34.393Z,11.45
2022-07-26T11:51:39.475Z,11.05
2022-07-26T11:54:48.163Z,11.80
2022-07-26T11:57:53.395Z,11.20
2022-07-26T12:00:58.894Z,10.25
2022-07-26T12:04:07.170Z,10.02
2022-07-26T12:07:13.816Z,10.65
2022-07-26T12:10:19.873Z,10.45
2022-07-26T12:13:25.136Z,11.30
2022-07-26T12:16:43.776Z,11.40
2022-07-26T12:19:51.522Z,10.02
2022-07-26T12:22:58.558Z,11.68
2022-07-26T12:29:33.475Z,10.73
2022-07-26T12:32:39.619Z,11.32
2022-07-26T12:35:47.223Z,10.90
2022-07-26T12:38:52.953Z,12.25
2022-07-26T12:41:58.117Z,11.20
2022-07-26T12:45:03.485Z,12.32
2022-07-26T12:48:12.086Z,12.30
